Decoded Metar for OITT (TABRIZ in IRAN) (IATA:TBZ) | Meteo·Mobile Aviation Weather
aviador You're here:

OITT Decoded Metar

TABRIZ in IRAN
Report Time2018-12-19 06:00:00
UTC Time2018-12-19 06:20:35
Flight Rules ifr IFR
WindCalm
Visibility1800 m
Phenomena:Mist
Clouds:Broken 011 Hf
Broken 090 Hf
Expected CloudBase > 800 ft AGL from Temp-Dew spread
Ceiling1,100 ft
Temp04°C (ISA -2)
Dew Point02°C (87% RH)
AAT2.3°C
QNH1027 hPa
Density Alt3,848 ft
Elevation4,465 ft
Report Wrong Elevation
Raw Report
METAR OITT 190600Z 00000KT 1800 BR BKN011 BKN090 04/02 Q1027 A3034
NOSIG=

Extra information for OITT:More info

Metar Taf Metar & Taf Last 4 Metars F.Rules Stats Wind Profile Meteogram Temp Stats Airport Information Weather charts Add Link Nearby VenuesMetar ALERT Operation Metar Decoded Social comments